Time;durP1;ratioP1;P1;durP2;ratioP2;P2;SDS_P1;SDS_P2;PMS_P1;PMS_P2;Temp;Humidity;BMP_temperature;BMP_pressure;BME280_temperature;BME280_humidity;BME280_pressure;Samples;Min_cycle;Max_cycle;Signal;HPM_P1;HPM_P2
2021/05/16 00:00:10;;;;;;;3.75;0.98;;;;;;;6.32;100.00;94889.28;1045320;28;20425;-68
2021/05/16 00:00:41;;;;;;;1.95;1.00;;;;;;;6.31;100.00;94891.09;1047388;28;20441;-68
2021/05/16 00:01:11;;;;;;;2.72;0.82;;;;;;;6.24;100.00;94868.94;1049130;28;20266;-69
2021/05/16 00:01:42;;;;;;;3.10;0.95;;;;;;;6.30;100.00;94892.13;1043805;28;20025;-67
2021/05/16 00:02:12;;;;;;;1.95;0.95;;;;;;;6.28;100.00;94885.63;1043831;28;20029;-68
2021/05/16 00:02:43;;;;;;;2.38;1.20;;;;;;;6.15;100.00;94876.44;1039333;28;20045;-68
2021/05/16 00:03:13;;;;;;;2.67;0.98;;;;;;;6.25;100.00;94893.94;1040804;28;20022;-67
2021/05/16 00:03:44;;;;;;;2.40;0.95;;;;;;;6.25;100.00;94888.72;1039061;28;20727;-67
2021/05/16 00:04:14;;;;;;;2.72;0.98;;;;;;;6.21;100.00;94885.84;1035498;28;20025;-69
2021/05/16 00:04:48;;;;;;;1.40;1.02;;;;;;;6.24;100.00;94884.56;1035327;28;20022;-68
2021/05/16 00:05:19;;;;;;;4.68;0.88;;;;;;;6.23;100.00;94888.97;1042834;28;20502;-68
2021/05/16 00:05:50;;;;;;;2.78;1.00;;;;;;;6.24;100.00;94890.56;1043654;28;20271;-69
2021/05/16 00:06:20;;;;;;;2.50;0.80;;;;;;;6.21;100.00;94885.84;1048129;28;20620;-69
2021/05/16 00:06:51;;;;;;;4.22;1.08;;;;;;;6.28;100.00;94889.00;1049253;28;20047;-67
2021/05/16 00:07:21;;;;;;;3.20;1.02;;;;;;;6.26;100.00;94893.66;1047275;28;20063;-67
2021/05/16 00:07:52;;;;;;;2.42;0.90;;;;;;;6.27;100.00;94884.84;1047723;28;20040;-68
2021/05/16 00:08:22;;;;;;;2.00;1.00;;;;;;;6.29;100.00;94890.56;1043359;28;20100;-69
2021/05/16 00:08:53;;;;;;;4.18;1.10;;;;;;;6.30;100.00;94891.34;1045940;28;20043;-69
2021/05/16 00:09:23;;;;;;;4.82;1.10;;;;;;;6.22;100.00;94881.44;1044748;28;20028;-67
2021/05/16 00:09:53;;;;;;;4.72;1.00;;;;;;;6.31;100.00;94892.91;1047690;28;20028;-68
2021/05/16 00:10:27;;;;;;;1.15;0.82;;;;;;;6.30;100.00;94891.34;1047350;28;20047;-68
2021/05/16 00:11:00;;;;;;;2.55;0.85;;;;;;;6.27;100.00;94884.84;1043403;28;20436;-69
2021/05/16 00:11:31;;;;;;;2.53;0.90;;;;;;;6.25;100.00;94878.31;1043195;28;20279;-69
2021/05/16 00:12:01;;;;;;;3.20;1.02;;;;;;;6.31;100.00;94895.53;1040425;28;20681;-68
2021/05/16 00:12:32;;;;;;;2.75;1.10;;;;;;;6.28;100.00;94886.41;1034948;28;20029;-68
2021/05/16 00:13:02;;;;;;;1.75;0.80;;;;;;;6.29;100.00;94887.94;1039300;28;20044;-69
2021/05/16 00:13:33;;;;;;;4.28;0.90;;;;;;;6.27;100.00;94892.66;1040931;28;20037;-69
2021/05/16 00:14:03;;;;;;;3.05;1.15;;;;;;;6.28;100.00;94886.41;1043156;28;20483;-67
2021/05/16 00:14:35;;;;;;;1.35;0.90;;;;;;;6.29;100.00;94889.78;1047689;28;20424;-68
2021/05/16 00:15:06;;;;;;;1.65;0.80;;;;;;;6.28;100.00;94893.44;1043528;28;20124;-67
2021/05/16 00:15:37;;;;;;;3.72;1.17;;;;;;;6.26;100.00;94888.47;1042434;28;20283;-67
2021/05/16 00:16:07;;;;;;;1.48;0.93;;;;;;;6.25;100.00;94889.50;1038872;28;20708;-68
2021/05/16 00:16:38;;;;;;;2.53;1.35;;;;;;;6.17;100.00;94866.56;1039624;28;20040;-68
2021/05/16 00:17:08;;;;;;;2.30;1.00;;;;;;;6.26;100.00;94892.91;1039392;28;20057;-69
2021/05/16 00:17:39;;;;;;;2.67;1.10;;;;;;;6.25;100.00;94886.91;1040188;28;20087;-68
2021/05/16 00:18:09;;;;;;;1.75;0.70;;;;;;;6.24;100.00;94889.78;1035299;28;20036;-69
2021/05/16 00:18:40;;;;;;;3.88;1.08;;;;;;;6.26;100.00;94891.06;1039291;28;20029;-69
2021/05/16 00:19:10;;;;;;;1.85;0.70;;;;;;;6.17;100.00;94871.78;1038594;28;20030;-69
2021/05/16 00:19:41;;;;;;;3.40;0.98;;;;;;;6.26;100.00;94885.84;1042572;28;20040;-69
2021/05/16 00:20:14;;;;;;;2.38;1.10;;;;;;;6.25;100.00;94886.13;1047430;28;20036;-67
2021/05/16 00:20:44;;;;;;;1.67;0.90;;;;;;;6.22;100.00;94892.63;1046680;28;20020;-68
2021/05/16 00:21:15;;;;;;;3.15;1.23;;;;;;;6.26;100.00;94885.84;1042595;28;20260;-68
2021/05/16 00:21:45;;;;;;;2.35;0.98;;;;;;;6.23;100.00;94894.19;1043743;28;20025;-67
2021/05/16 00:22:18;;;;;;;2.70;0.98;;;;;;;6.21;100.00;94885.84;1042997;28;20025;-68
2021/05/16 00:22:49;;;;;;;4.38;1.08;;;;;;;6.20;100.00;94891.31;1044780;28;20756;-68
2021/05/16 00:23:20;;;;;;;1.70;0.98;;;;;;;6.15;100.00;94892.06;1043331;28;20316;-68
2021/05/16 00:23:50;;;;;;;4.43;1.35;;;;;;;6.16;100.00;94892.84;1043298;28;20064;-69
2021/05/16 00:24:20;;;;;;;4.10;1.77;;;;;;;6.21;100.00;94895.50;1043183;28;20505;-68
2021/05/16 00:24:51;;;;;;;3.00;1.08;;;;;;;6.21;100.00;94890.28;1041470;28;20522;-69
2021/05/16 00:25:22;;;;;;;2.10;1.17;;;;;;;6.21;100.00;94895.50;1043332;28;20435;-68
2021/05/16 00:25:52;;;;;;;4.43;1.38;;;;;;;6.20;100.00;94899.91;1046688;28;20024;-69
2021/05/16 00:26:23;;;;;;;2.15;0.82;;;;;;;6.19;100.00;94902.78;1044584;28;20024;-69
2021/05/16 00:26:53;;;;;;;2.53;1.15;;;;;;;6.15;100.00;94894.69;1043386;28;20033;-68
2021/05/16 00:27:26;;;;;;;5.32;1.05;;;;;;;6.14;100.00;94891.31;1046339;28;20037;-67
2021/05/16 00:27:57;;;;;;;3.78;1.70;;;;;;;6.14;100.00;94895.72;1051256;28;20258;-69
2021/05/16 00:28:27;;;;;;;3.78;1.23;;;;;;;6.13;100.00;94888.94;1039595;28;20115;-69
2021/05/16 00:29:00;;;;;;;7.47;1.55;;;;;;;6.11;100.00;94898.84;1039161;28;20029;-68
2021/05/16 00:29:31;;;;;;;3.92;1.30;;;;;;;6.08;100.00;94894.13;1034676;28;20030;-69
2021/05/16 00:30:06;;;;;;;2.35;1.08;;;;;;;6.02;100.00;94892.56;1035315;28;20273;-69
2021/05/16 00:30:36;;;;;;;4.97;1.20;;;;;;;6.06;100.00;94893.59;1045313;28;20163;-70
2021/05/16 00:31:06;;;;;;;4.38;1.23;;;;;;;6.09;100.00;94899.09;1046018;28;20341;-69
2021/05/16 00:31:37;;;;;;;2.88;0.90;;;;;;;6.09;100.00;94904.28;1046338;28;20044;-70
2021/05/16 00:32:07;;;;;;;6.55;1.20;;;;;;;6.08;100.00;94889.72;1047926;28;20475;-69
2021/05/16 00:32:38;;;;;;;3.50;1.00;;;;;;;6.05;100.00;94900.63;1043243;28;20497;-68
2021/05/16 00:33:08;;;;;;;4.63;1.13;;;;;;;6.07;100.00;94897.75;1040763;28;20402;-68
2021/05/16 00:33:44;;;;;;;2.42;1.10;;;;;;;6.04;100.00;94908.72;1043129;28;20087;-68
2021/05/16 00:34:14;;;;;;;2.00;1.00;;;;;;;6.06;100.00;94904.03;1044532;28;20596;-68
2021/05/16 00:34:45;;;;;;;1.25;1.13;;;;;;;6.08;100.00;94896.75;1043680;28;20276;-69
2021/05/16 00:35:16;;;;;;;4.10;1.00;;;;;;;6.11;100.00;94888.44;1044253;28;20071;-68
2021/05/16 00:35:47;;;;;;;5.75;1.65;;;;;;;6.08;100.00;94899.34;1046755;28;20036;-69
2021/05/16 00:36:23;;;;;;;2.75;1.13;;;;;;;6.09;100.00;94899.09;1043977;28;20637;-69
2021/05/16 00:36:54;;;;;;;3.22;1.23;;;;;;;6.12;100.00;94887.38;1052709;28;20332;-70
2021/05/16 00:37:24;;;;;;;3.28;1.20;;;;;;;6.13;100.00;94896.75;1051580;28;20280;-68
2021/05/16 00:37:55;;;;;;;4.32;1.40;;;;;;;6.06;100.00;94889.16;1052698;28;20503;-68
2021/05/16 00:38:29;;;;;;;5.15;1.23;;;;;;;6.07;100.00;94884.75;1047388;28;20040;-67
2021/05/16 00:38:59;;;;;;;4.53;1.10;;;;;;;6.07;100.00;94884.75;1039128;28;20275;-68
2021/05/16 00:39:30;;;;;;;4.53;1.00;;;;;;;6.09;100.00;94883.47;1032840;28;20292;-68
2021/05/16 00:40:01;;;;;;;2.33;1.00;;;;;;;6.12;100.00;94884.78;1036107;28;20049;-69
2021/05/16 00:40:35;;;;;;;2.33;0.90;;;;;;;6.05;100.00;94876.41;1039412;28;20037;-68
2021/05/16 00:41:05;;;;;;;4.05;1.02;;;;;;;6.13;100.00;94889.72;1042274;28;20545;-67
2021/05/16 00:41:35;;;;;;;3.22;1.13;;;;;;;6.16;100.00;94885.81;1042573;28;20259;-70
2021/05/16 00:42:06;;;;;;;4.90;1.13;;;;;;;6.20;100.00;94888.69;1037767;28;20037;-65
2021/05/16 00:42:36;;;;;;;1.88;0.90;;;;;;;6.18;100.00;94890.78;1043756;28;20559;-70
2021/05/16 00:43:07;;;;;;;3.75;1.13;;;;;;;6.20;100.00;94894.69;1042950;28;20036;-69
2021/05/16 00:43:37;;;;;;;4.25;1.45;;;;;;;6.13;100.00;94873.31;1038792;28;20131;-69
2021/05/16 00:44:08;;;;;;;1.90;0.80;;;;;;;6.20;100.00;94884.28;1038436;28;20038;-69
2021/05/16 00:44:38;;;;;;;1.45;0.90;;;;;;;6.20;100.00;94886.88;1037368;28;20038;-67
2021/05/16 00:45:11;;;;;;;2.58;1.00;;;;;;;6.24;100.00;94885.34;1036194;28;20056;-69
2021/05/16 00:45:46;;;;;;;3.72;1.13;;;;;;;6.20;100.00;94888.69;1038955;28;20058;-69
2021/05/16 00:46:16;;;;;;;2.80;1.00;;;;;;;6.09;100.00;94880.84;1039825;28;20276;-69
2021/05/16 00:46:47;;;;;;;2.80;0.90;;;;;;;6.14;100.00;94882.72;1038495;28;20288;-69
2021/05/16 00:47:17;;;;;;;1.98;1.10;;;;;;;6.16;100.00;94887.66;1035982;28;20129;-69
2021/05/16 00:47:59;;;;;;;3.05;0.95;;;;;;;6.17;100.00;94889.22;1035213;28;20038;-69
2021/05/16 00:48:29;;;;;;;3.33;1.42;;;;;;;6.20;100.00;94888.69;1037103;28;20115;-70
2021/05/16 00:48:59;;;;;;;4.82;0.90;;;;;;;6.17;100.00;94887.41;1039322;28;20276;-69
2021/05/16 00:49:30;;;;;;;4.65;1.20;;;;;;;6.21;100.00;94885.06;1045107;28;20028;-69
2021/05/16 00:50:07;;;;;;;5.05;1.30;;;;;;;6.19;100.00;94890.53;1048341;28;20397;-68
2021/05/16 00:50:42;;;;;;;2.35;1.02;;;;;;;6.14;100.00;94885.31;1051179;28;20848;-69
2021/05/16 00:51:13;;;;;;;4.00;0.95;;;;;;;6.18;100.00;94882.97;1055942;28;20637;-69
2021/05/16 00:51:43;;;;;;;2.83;1.00;;;;;;;6.17;100.00;94884.00;1051933;28;20262;-67
2021/05/16 00:52:14;;;;;;;4.13;1.15;;;;;;;6.16;100.00;94883.22;1048765;28;20043;-69
2021/05/16 00:52:44;;;;;;;4.35;0.98;;;;;;;6.17;100.00;94884.81;1048004;28;20029;-68
2021/05/16 00:53:22;;;;;;;4.43;1.20;;;;;;;6.18;100.00;94888.97;1043510;28;20057;-69
2021/05/16 00:53:52;;;;;;;3.13;1.00;;;;;;;6.16;100.00;94888.44;1040254;28;20131;-69
2021/05/16 00:54:23;;;;;;;2.75;1.13;;;;;;;6.13;100.00;94881.13;1042545;28;20271;-69
2021/05/16 00:54:54;;;;;;;3.17;1.35;;;;;;;6.13;100.00;94887.09;1039250;28;20036;-69
2021/05/16 00:55:24;;;;;;;1.83;0.80;;;;;;;6.13;100.00;94884.50;1036783;28;20036;-69
2021/05/16 00:55:57;;;;;;;5.72;1.30;;;;;;;6.13;100.00;94881.13;1037751;28;20713;-67
2021/05/16 00:56:27;;;;;;;5.25;1.13;;;;;;;6.17;100.00;94884.00;1042729;28;20020;-69
2021/05/16 00:56:58;;;;;;;1.00;0.75;;;;;;;6.13;100.00;94879.28;1038748;28;20643;-68
2021/05/16 00:57:28;;;;;;;4.18;1.00;;;;;;;6.14;100.00;94880.09;1038731;28;20037;-69
2021/05/16 00:57:59;;;;;;;4.55;1.20;;;;;;;6.18;100.00;94886.38;1038934;28;20157;-68
2021/05/16 00:58:29;;;;;;;1.67;0.73;;;;;;;6.19;100.00;94889.75;1039171;28;20056;-70
2021/05/16 00:59:02;;;;;;;2.63;1.13;;;;;;;6.18;100.00;94891.56;1043521;28;20044;-69
2021/05/16 00:59:33;;;;;;;4.50;1.17;;;;;;;6.15;100.00;94889.47;1052407;28;20032;-70
2021/05/16 01:00:08;;;;;;;3.38;1.48;;;;;;;6.11;100.00;94883.22;1048433;28;20275;-68
2021/05/16 01:00:40;;;;;;;5.63;2.47;;;;;;;6.15;100.00;94889.47;1043598;28;20036;-69
2021/05/16 01:01:13;;;;;;;3.53;1.17;;;;;;;6.19;100.00;94894.97;1040090;28;20282;-68
2021/05/16 01:01:44;;;;;;;4.60;1.33;;;;;;;6.16;100.00;94893.63;1040338;28;20361;-68
2021/05/16 01:02:14;;;;;;;2.05;1.00;;;;;;;6.09;100.00;94872.25;1048621;28;20833;-69
2021/05/16 01:02:45;;;;;;;1.92;0.90;;;;;;;6.22;100.00;94892.63;1047905;28;20020;-68
2021/05/16 01:03:15;;;;;;;1.95;1.15;;;;;;;6.23;100.00;94882.97;1048336;28;20036;-70
2021/05/16 01:03:46;;;;;;;3.15;1.05;;;;;;;6.20;100.00;94889.47;1049897;28;20078;-69
2021/05/16 01:04:16;;;;;;;3.75;1.40;;;;;;;6.18;100.00;94883.75;1043966;28;20013;-69
2021/05/16 01:04:46;;;;;;;4.82;1.42;;;;;;;6.19;100.00;94884.53;1047134;28;20075;-69
2021/05/16 01:05:17;;;;;;;5.40;0.90;;;;;;;6.19;100.00;94884.53;1041053;28;20497;-68
2021/05/16 01:05:48;;;;;;;2.35;0.80;;;;;;;6.17;100.00;94879.59;1043435;28;20025;-69
2021/05/16 01:06:18;;;;;;;3.10;0.85;;;;;;;5.99;100.00;94851.38;1043317;28;20045;-69
2021/05/16 01:06:49;;;;;;;3.63;0.85;;;;;;;6.14;100.00;94874.91;1035135;28;20045;-69
2021/05/16 01:07:19;;;;;;;1.58;0.80;;;;;;;6.19;100.00;94887.91;1034888;28;20507;-69
2021/05/16 01:07:51;;;;;;;1.83;0.73;;;;;;;6.16;100.00;94883.22;1039198;28;20025;-69
2021/05/16 01:08:21;;;;;;;3.03;0.82;;;;;;;6.18;100.00;94883.75;1035682;28;20038;-69
2021/05/16 01:08:56;;;;;;;2.67;0.93;;;;;;;6.16;100.00;94875.41;1043073;28;20263;-70
2021/05/16 01:09:28;;;;;;;3.28;1.08;;;;;;;6.19;100.00;94890.53;1043612;28;20067;-70
2021/05/16 01:09:58;;;;;;;2.17;0.95;;;;;;;6.16;100.00;94878.00;1044725;28;20727;-69
2021/05/16 01:10:29;;;;;;;2.35;0.73;;;;;;;6.08;100.00;94871.47;1052417;28;20270;-68
2021/05/16 01:10:59;;;;;;;5.75;1.10;;;;;;;6.20;100.00;94888.69;1052155;28;20035;-69
2021/05/16 01:11:31;;;;;;;4.57;1.02;;;;;;;6.21;100.00;94885.84;1041921;28;20501;-69
2021/05/16 01:12:04;;;;;;;3.03;0.80;;;;;;;6.23;100.00;94888.97;1043491;28;20383;-68
2021/05/16 01:12:43;;;;;;;1.25;0.70;;;;;;;6.24;100.00;94889.78;1047925;28;20424;-68
2021/05/16 01:13:14;;;;;;;1.27;0.65;;;;;;;6.24;100.00;94890.56;1049060;28;20282;-69
2021/05/16 01:13:48;;;;;;;1.70;0.90;;;;;;;6.17;100.00;94882.19;1042707;28;20283;-69
2021/05/16 01:14:25;;;;;;;1.77;0.80;;;;;;;6.16;100.00;94878.00;1037438;28;20025;-70
2021/05/16 01:14:57;;;;;;;2.03;0.80;;;;;;;6.19;100.00;94893.13;1034961;28;20276;-69
2021/05/16 01:15:28;;;;;;;4.25;1.00;;;;;;;6.18;100.00;94881.16;1038984;28;20263;-69
2021/05/16 01:16:01;;;;;;;2.25;0.90;;;;;;;6.19;100.00;94885.31;1036489;28;20260;-68
2021/05/16 01:16:31;;;;;;;1.85;1.05;;;;;;;6.19;100.00;94881.94;1040513;28;20055;-69
2021/05/16 01:17:02;;;;;;;1.20;0.70;;;;;;;6.10;100.00;94868.59;1045519;28;20282;-68
2021/05/16 01:17:32;;;;;;;0.80;0.68;;;;;;;6.07;100.00;94879.53;1046895;28;20060;-69
2021/05/16 01:18:03;;;;;;;1.48;0.63;;;;;;;6.02;100.00;94872.50;1047376;28;20020;-69
2021/05/16 01:18:34;;;;;;;3.47;1.05;;;;;;;6.10;100.00;94879.03;1047826;28;20057;-68
2021/05/16 01:19:04;;;;;;;1.23;0.70;;;;;;;6.12;100.00;94876.97;1044108;28;20056;-69
2021/05/16 01:19:35;;;;;;;2.95;0.90;;;;;;;6.10;100.00;94879.84;1045826;28;20506;-69
2021/05/16 01:20:07;;;;;;;4.53;1.42;;;;;;;6.00;100.00;94869.38;1045067;28;20051;-69
2021/05/16 01:20:44;;;;;;;2.58;0.82;;;;;;;5.97;100.00;94864.69;1047873;28;20016;-69
2021/05/16 01:21:17;;;;;;;3.13;0.80;;;;;;;6.06;100.00;94883.19;1047172;28;20329;-69
2021/05/16 01:21:48;;;;;;;1.70;0.55;;;;;;;6.06;100.00;94875.38;1042738;28;20271;-68
2021/05/16 01:22:18;;;;;;;1.00;0.70;;;;;;;5.98;100.00;94870.66;1044233;28;20259;-65
2021/05/16 01:23:26;;;;;;;3.72;0.90;;;;;;;6.02;100.00;94877.69;1047519;28;20401;-70
2021/05/16 01:23:56;;;;;;;1.70;0.73;;;;;;;6.01;100.00;94885.78;1050997;28;20042;-70
2021/05/16 01:24:28;;;;;;;1.42;0.63;;;;;;;6.01;100.00;94880.56;1055667;28;20288;-65
2021/05/16 01:25:02;;;;;;;2.75;0.85;;;;;;;5.96;100.00;94877.94;1055639;28;20049;-69
2021/05/16 01:25:37;;;;;;;2.15;0.80;;;;;;;5.95;100.00;94881.59;1053113;28;20294;-66
2021/05/16 01:26:11;;;;;;;2.03;0.80;;;;;;;5.91;100.00;94882.06;1054645;28;20287;-69
2021/05/16 01:26:45;;;;;;;3.60;1.15;;;;;;;5.83;100.00;94872.13;1051209;28;20269;-69
2021/05/16 01:27:15;;;;;;;2.97;1.10;;;;;;;5.91;100.00;94876.84;1037485;28;20761;-67
2021/05/16 01:27:46;;;;;;;3.58;0.98;;;;;;;5.91;100.00;94871.66;1038428;28;20271;-66
2021/05/16 01:28:17;;;;;;;2.42;0.73;;;;;;;5.85;100.00;94864.84;1040950;28;20518;-67
2021/05/16 01:28:47;;;;;;;3.17;0.98;;;;;;;5.93;100.00;94878.44;1042334;28;20108;-68
2021/05/16 01:29:18;;;;;;;1.77;0.95;;;;;;;5.84;100.00;94865.13;1049345;28;20271;-68
2021/05/16 01:29:51;;;;;;;2.80;1.05;;;;;;;5.93;100.00;94878.44;1038837;28;20116;-68
2021/05/16 01:30:22;;;;;;;2.78;0.90;;;;;;;5.93;100.00;94875.84;1040437;28;20037;-68
2021/05/16 01:30:52;;;;;;;2.45;0.73;;;;;;;5.95;100.00;94876.38;1042861;28;20720;-67
2021/05/16 01:31:23;;;;;;;1.25;0.60;;;;;;;5.94;100.00;94869.63;1043764;28;20040;-70
2021/05/16 01:31:54;;;;;;;3.90;0.82;;;;;;;5.96;100.00;94872.72;1043031;28;20820;-69
2021/05/16 01:32:24;;;;;;;2.17;0.70;;;;;;;5.85;100.00;94864.84;1033449;28;20637;-67
2021/05/16 01:32:55;;;;;;;5.35;1.25;;;;;;;5.91;100.00;94876.06;1036400;28;20088;-68
2021/05/16 01:33:25;;;;;;;3.22;0.80;;;;;;;5.93;100.00;94878.44;1039920;28;20493;-67
2021/05/16 01:33:58;;;;;;;3.30;0.98;;;;;;;5.91;100.00;94873.47;1040219;28;20033;-68
2021/05/16 01:34:29;;;;;;;1.35;0.60;;;;;;;5.87;100.00;94881.00;1047520;28;20364;-66
2021/05/16 01:34:59;;;;;;;3.08;0.80;;;;;;;5.86;100.00;94876.81;1051484;28;20036;-69
2021/05/16 01:35:30;;;;;;;1.90;0.80;;;;;;;5.87;100.00;94873.19;1051249;28;20032;-67
2021/05/16 01:36:00;;;;;;;1.77;0.60;;;;;;;5.87;100.00;94865.38;1046526;28;20530;-67
2021/05/16 01:36:31;;;;;;;3.75;1.00;;;;;;;5.89;100.00;94865.91;1042832;28;20529;-68
2021/05/16 01:37:02;;;;;;;1.27;0.70;;;;;;;5.91;100.00;94871.66;1039092;28;20039;-69
2021/05/16 01:37:32;;;;;;;2.10;0.73;;;;;;;5.95;100.00;94866.75;1038822;28;20037;-69
2021/05/16 01:38:03;;;;;;;3.25;0.80;;;;;;;6.01;100.00;94870.16;1034963;28;20350;-68
2021/05/16 01:38:35;;;;;;;1.70;1.05;;;;;;;6.02;100.00;94869.13;1038788;28;20057;-68
2021/05/16 01:39:08;;;;;;;1.67;0.70;;;;;;;6.02;100.00;94869.13;1039112;28;20316;-68
2021/05/16 01:39:39;;;;;;;1.95;0.75;;;;;;;6.02;100.00;94866.50;1037691;28;20778;-67
2021/05/16 01:40:10;;;;;;;3.03;1.27;;;;;;;6.00;100.00;94868.56;1036221;28;20335;-68
2021/05/16 01:40:40;;;;;;;2.65;0.90;;;;;;;5.93;100.00;94855.00;1038987;28;20271;-70
2021/05/16 01:41:11;;;;;;;4.25;0.95;;;;;;;6.03;100.00;94863.63;1042091;28;20279;-67
2021/05/16 01:41:41;;;;;;;2.15;1.00;;;;;;;6.03;100.00;94866.25;1047162;28;20965;-68
2021/05/16 01:42:12;;;;;;;1.45;0.60;;;;;;;6.03;100.00;94862.84;1043173;28;20118;-68
2021/05/16 01:42:53;;;;;;;2.45;0.80;;;;;;;6.01;100.00;94870.94;1047747;28;20031;-67
2021/05/16 01:43:23;;;;;;;1.70;0.75;;;;;;;6.07;100.00;94871.72;1051999;28;20073;-67
2021/05/16 01:43:55;;;;;;;3.28;1.02;;;;;;;6.05;100.00;94873.81;1048889;28;20640;-67
2021/05/16 01:44:26;;;;;;;2.15;0.70;;;;;;;6.05;100.00;94861.56;1045866;28;20111;-67
2021/05/16 01:45:04;;;;;;;1.58;0.98;;;;;;;6.06;100.00;94872.78;1046598;28;20289;-67
2021/05/16 01:45:34;;;;;;;2.45;0.90;;;;;;;6.02;100.00;94866.50;1048195;28;20140;-67
2021/05/16 01:46:05;;;;;;;2.22;0.60;;;;;;;6.05;100.00;94866.78;1044853;28;20289;-68
2021/05/16 01:46:36;;;;;;;3.00;0.70;;;;;;;5.95;100.00;94856.34;1039958;28;20056;-68
2021/05/16 01:47:06;;;;;;;3.28;0.70;;;;;;;5.93;100.00;94850.59;1035513;28;20777;-70
2021/05/16 01:47:37;;;;;;;3.85;1.08;;;;;;;6.02;100.00;94863.91;1043082;28;20024;-66
2021/05/16 01:48:07;;;;;;;4.43;0.88;;;;;;;6.01;100.00;94863.13;1045100;28;20040;-67
2021/05/16 01:48:40;;;;;;;2.38;0.70;;;;;;;6.01;100.00;94860.53;1045724;28;20595;-68
2021/05/16 01:49:11;;;;;;;1.23;0.60;;;;;;;6.01;100.00;94862.34;1046028;28;20266;-69
2021/05/16 01:49:48;;;;;;;1.90;0.98;;;;;;;6.00;100.00;94863.38;1043447;28;20505;-69
2021/05/16 01:50:19;;;;;;;3.70;0.88;;;;;;;6.00;100.00;94860.75;1041230;28;20020;-69
2021/05/16 01:50:50;;;;;;;2.10;0.88;;;;;;;5.97;100.00;94862.06;1045180;28;20260;-67
2021/05/16 01:51:20;;;;;;;1.75;0.50;;;;;;;5.95;100.00;94865.97;1049066;28;20250;-67
2021/05/16 01:51:54;;;;;;;4.18;1.15;;;;;;;5.91;100.00;94856.03;1044816;28;20104;-69
2021/05/16 01:52:26;;;;;;;2.45;0.73;;;;;;;5.89;100.00;94868.50;1051042;28;20393;-69
2021/05/16 01:52:57;;;;;;;3.22;0.80;;;;;;;5.91;100.00;94876.06;1050730;28;20353;-68
2021/05/16 01:53:27;;;;;;;1.13;0.60;;;;;;;5.91;100.00;94871.66;1051906;28;20254;-67
2021/05/16 01:53:58;;;;;;;1.27;0.90;;;;;;;5.91;100.00;94869.03;1046592;28;20024;-71
2021/05/16 01:54:29;;;;;;;0.75;0.68;;;;;;;5.88;100.00;94866.94;1046804;28;20013;-69
2021/05/16 01:54:59;;;;;;;3.20;1.05;;;;;;;5.76;100.00;94853.34;1038840;28;20022;-69
2021/05/16 01:55:30;;;;;;;3.70;0.88;;;;;;;5.83;100.00;94864.31;1042458;28;20059;-71
2021/05/16 01:56:00;;;;;;;2.47;0.70;;;;;;;5.81;100.00;94870.81;1044254;28;20502;-70
2021/05/16 01:56:31;;;;;;;1.70;0.65;;;;;;;5.81;100.00;94876.81;1046922;28;20078;-69
2021/05/16 01:57:02;;;;;;;3.13;0.90;;;;;;;5.81;100.00;94871.59;1043162;28;20025;-71
2021/05/16 01:57:36;;;;;;;1.20;0.73;;;;;;;5.79;100.00;94867.69;1041801;28;20028;-70
2021/05/16 01:58:06;;;;;;;1.92;0.70;;;;;;;5.76;100.00;94868.97;1046798;28;20277;-69
2021/05/16 01:58:37;;;;;;;2.22;0.63;;;;;;;5.69;100.00;94860.59;1047796;28;20274;-67
2021/05/16 01:59:07;;;;;;;2.92;0.88;;;;;;;5.75;100.00;94872.63;1038815;28;20495;-68
2021/05/16 01:59:37;;;;;;;2.75;0.75;;;;;;;5.74;100.00;94870.28;1041727;28;20021;-69
2021/05/16 02:00:10;;;;;;;2.70;0.80;;;;;;;5.67;100.00;94866.06;1035486;28;20022;-67
2021/05/16 02:00:41;;;;;;;2.08;0.90;;;;;;;5.75;100.00;94869.22;1038971;28;20041;-69
2021/05/16 02:01:12;;;;;;;2.80;0.82;;;;;;;5.71;100.00;94875.97;1038413;28;20650;-69
2021/05/16 02:01:43;;;;;;;1.98;0.75;;;;;;;5.71;100.00;94871.56;1036790;28;20363;-68
2021/05/16 02:02:13;;;;;;;1.98;0.60;;;;;;;5.71;100.00;94876.75;1046838;28;20709;-67
2021/05/16 02:02:44;;;;;;;4.65;1.00;;;;;;;5.68;100.00;94872.06;1044825;28;20930;-68
2021/05/16 02:03:14;;;;;;;2.30;0.80;;;;;;;5.58;100.00;94866.81;1042282;28;20449;-70
2021/05/16 02:03:45;;;;;;;1.77;0.90;;;;;;;5.71;100.00;94887.16;1040997;28;20497;-67
2021/05/16 02:04:18;;;;;;;1.58;0.75;;;;;;;5.71;100.00;94886.41;1038911;28;20048;-69
2021/05/16 02:04:49;;;;;;;3.00;0.75;;;;;;;5.73;100.00;94882.47;1034551;28;20563;-68
2021/05/16 02:05:19;;;;;;;4.07;0.75;;;;;;;5.73;100.00;94882.47;1034455;28;20257;-68
2021/05/16 02:05:50;;;;;;;3.08;1.00;;;;;;;5.70;100.00;94870.00;1033558;28;20113;-69
2021/05/16 02:06:20;;;;;;;3.15;0.90;;;;;;;5.71;100.00;94875.97;1034627;28;20032;-69
2021/05/16 02:06:51;;;;;;;1.33;0.70;;;;;;;5.67;100.00;94875.72;1042617;28;20017;-68
2021/05/16 02:07:21;;;;;;;1.75;0.60;;;;;;;5.62;100.00;94863.44;1047102;28;20293;-69
2021/05/16 02:07:52;;;;;;;2.35;0.68;;;;;;;5.67;100.00;94870.50;1039347;28;20410;-67
2021/05/16 02:08:22;;;;;;;5.00;0.82;;;;;;;5.61;100.00;94871.50;1047001;28;20481;-69
2021/05/16 02:08:53;;;;;;;1.55;0.40;;;;;;;5.61;100.00;94874.88;1038763;28;20045;-67
2021/05/16 02:09:26;;;;;;;2.60;0.93;;;;;;;5.63;100.00;94870.22;1037973;28;20041;-69
2021/05/16 02:09:56;;;;;;;2.08;0.70;;;;;;;5.57;100.00;94868.63;1041275;28;20025;-70
2021/05/16 02:10:27;;;;;;;3.90;0.70;;;;;;;5.58;100.00;94869.41;1042410;28;20276;-71
2021/05/16 02:11:02;;;;;;;1.08;0.50;;;;;;;5.55;100.00;94867.31;1036433;28;20029;-70
2021/05/16 02:11:32;;;;;;;2.58;0.80;;;;;;;5.54;100.00;94878.75;1037028;28;20283;-70
2021/05/16 02:12:04;;;;;;;3.60;0.70;;;;;;;5.55;100.00;94877.72;1039271;28;20272;-70
2021/05/16 02:12:34;;;;;;;1.42;0.70;;;;;;;5.54;100.00;94876.16;1042549;28;20083;-67
2021/05/16 02:13:04;;;;;;;1.85;0.82;;;;;;;5.54;100.00;94874.34;1037308;28;20761;-69
2021/05/16 02:13:36;;;;;;;1.90;0.80;;;;;;;5.61;100.00;94871.50;1039306;28;20067;-69
2021/05/16 02:14:06;;;;;;;3.72;0.80;;;;;;;5.62;100.00;94868.63;1043287;28;20036;-69
2021/05/16 02:14:37;;;;;;;1.90;0.60;;;;;;;5.54;100.00;94861.31;1042854;28;20640;-69
2021/05/16 02:15:11;;;;;;;1.05;0.43;;;;;;;5.63;100.00;94877.22;1045221;28;20032;-70
2021/05/16 02:15:41;;;;;;;1.67;0.95;;;;;;;5.61;100.00;94866.31;1045211;28;20123;-69
2021/05/16 02:16:12;;;;;;;1.85;0.80;;;;;;;5.62;100.00;94870.47;1037985;28;20309;-67
2021/05/16 02:16:42;;;;;;;1.90;0.75;;;;;;;5.59;100.00;94871.75;1041673;28;20025;-69
2021/05/16 02:17:13;;;;;;;3.33;0.90;;;;;;;5.55;100.00;94865.47;1042602;28;20032;-68
2021/05/16 02:17:44;;;;;;;2.45;0.70;;;;;;;5.57;100.00;94871.22;1042653;28;20100;-67
2021/05/16 02:18:16;;;;;;;1.83;0.82;;;;;;;5.55;100.00;94862.09;1038066;28;20029;-70
2021/05/16 02:18:46;;;;;;;5.10;1.08;;;;;;;5.58;100.00;94867.59;1035381;28;20110;-69
2021/05/16 02:19:17;;;;;;;1.40;0.80;;;;;;;5.53;100.00;94859.72;1039003;28;20958;-69
2021/05/16 02:19:47;;;;;;;3.28;0.60;;;;;;;5.62;100.00;94868.63;1035800;28;20025;-70
2021/05/16 02:20:18;;;;;;;3.75;0.90;;;;;;;5.64;100.00;94871.00;1037778;28;20029;-70
2021/05/16 02:20:51;;;;;;;4.00;0.90;;;;;;;5.60;100.00;94869.91;1039153;28;20029;-68
2021/05/16 02:21:22;;;;;;;1.88;0.80;;;;;;;5.55;100.00;94857.69;1043215;28;20268;-69
2021/05/16 02:21:52;;;;;;;2.28;0.70;;;;;;;5.64;100.00;94873.59;1039595;28;20033;-68
2021/05/16 02:22:23;;;;;;;3.15;0.63;;;;;;;5.65;100.00;94872.56;1042196;28;20091;-69
2021/05/16 02:22:54;;;;;;;1.13;0.68;;;;;;;5.59;100.00;94863.94;1042630;28;20039;-70
2021/05/16 02:23:24;;;;;;;1.20;0.63;;;;;;;5.63;100.00;94861.63;1044922;28;20035;-71
2021/05/16 02:23:54;;;;;;;1.65;0.88;;;;;;;5.66;100.00;94871.53;1051171;28;20024;-70
2021/05/16 02:24:25;;;;;;;2.08;0.65;;;;;;;5.68;100.00;94872.06;1055130;28;20372;-70
2021/05/16 02:24:55;;;;;;;2.20;0.85;;;;;;;5.68;100.00;94874.66;1053859;28;20549;-70
2021/05/16 02:25:28;;;;;;;1.30;0.60;;;;;;;5.68;100.00;94874.66;1050956;28;20048;-69
2021/05/16 02:25:59;;;;;;;1.25;0.60;;;;;;;5.68;100.00;94877.25;1043350;28;20267;-67
2021/05/16 02:26:29;;;;;;;1.35;0.90;;;;;;;5.56;100.00;94854.03;1046909;28;20028;-70
2021/05/16 02:27:02;;;;;;;2.33;0.82;;;;;;;5.68;100.00;94877.25;1046691;28;20555;-69
2021/05/16 02:27:36;;;;;;;2.05;0.80;;;;;;;5.66;100.00;94874.13;1047286;28;20506;-68
2021/05/16 02:28:06;;;;;;;2.72;0.90;;;;;;;5.67;100.00;94873.88;1042640;28;20278;-68